sensor_id;sensor_type;location;lat;lon;timestamp;pressure;altitude;pressure_sealevel;temperature;humidity
64066;BME280;50318;54.760;9.408;2022-12-05T00:01:22;101921.94;;;8.45;68.48
64066;BME280;50318;54.760;9.408;2022-12-05T00:03:52;101923.13;;;8.44;68.65
64066;BME280;50318;54.760;9.408;2022-12-05T00:06:19;101922.38;;;8.40;68.31
64066;BME280;50318;54.760;9.408;2022-12-05T00:08:45;101927.13;;;8.36;69.10
64066;BME280;50318;54.760;9.408;2022-12-05T00:11:38;101941.56;;;8.37;68.27
64066;BME280;50318;54.760;9.408;2022-12-05T00:14:06;101920.13;;;8.28;68.79
64066;BME280;50318;54.760;9.408;2022-12-05T00:16:35;101927.97;;;8.22;69.44
64066;BME280;50318;54.760;9.408;2022-12-05T00:19:02;101928.00;;;8.19;69.96
64066;BME280;50318;54.760;9.408;2022-12-05T00:21:30;101930.38;;;8.17;69.81
64066;BME280;50318;54.760;9.408;2022-12-05T00:23:57;101928.81;;;8.16;70.18
64066;BME280;50318;54.760;9.408;2022-12-05T00:26:24;101935.06;;;8.16;70.51
64066;BME280;50318;54.760;9.408;2022-12-05T00:28:50;101925.72;;;8.14;70.44
64066;BME280;50318;54.760;9.408;2022-12-05T00:31:21;101928.06;;;8.12;70.32
64066;BME280;50318;54.760;9.408;2022-12-05T00:33:48;101928.81;;;8.16;70.44
64066;BME280;50318;54.760;9.408;2022-12-05T00:36:17;101922.59;;;8.15;70.70
64066;BME280;50318;54.760;9.408;2022-12-05T00:38:43;101916.34;;;8.15;69.98
64066;BME280;50318;54.760;9.408;2022-12-05T00:41:12;101913.19;;;8.16;70.71
64066;BME280;50318;54.760;9.408;2022-12-05T00:43:39;101917.88;;;8.16;70.37
64066;BME280;50318;54.760;9.408;2022-12-05T00:46:07;101905.00;;;8.16;70.56
64066;BME280;50318;54.760;9.408;2022-12-05T00:48:34;101907.72;;;8.16;70.43
64066;BME280;50318;54.760;9.408;2022-12-05T00:51:08;101906.59;;;8.14;69.99
64066;BME280;50318;54.760;9.408;2022-12-05T00:53:35;101900.72;;;8.15;70.70
64066;BME280;50318;54.760;9.408;2022-12-05T00:56:07;101908.53;;;8.13;70.65
64066;BME280;50318;54.760;9.408;2022-12-05T00:58:33;101905.41;;;8.15;70.15
64066;BME280;50318;54.760;9.408;2022-12-05T01:03:39;101904.66;;;8.11;70.04
64066;BME280;50318;54.760;9.408;2022-12-05T01:06:05;101883.56;;;8.11;70.20
64066;BME280;50318;54.760;9.408;2022-12-05T01:08:33;101891.00;;;8.11;70.55
64066;BME280;50318;54.760;9.408;2022-12-05T01:10:59;101891.38;;;8.13;70.64
64066;BME280;50318;54.760;9.408;2022-12-05T01:13:26;101899.13;;;8.18;70.08
64066;BME280;50318;54.760;9.408;2022-12-05T01:15:53;101903.03;;;8.17;69.51
64066;BME280;50318;54.760;9.408;2022-12-05T01:18:20;101906.91;;;8.19;69.81
64066;BME280;50318;54.760;9.408;2022-12-05T01:20:47;101908.50;;;8.17;69.77
64066;BME280;50318;54.760;9.408;2022-12-05T01:23:13;101891.34;;;8.16;69.57
64066;BME280;50318;54.760;9.408;2022-12-05T01:25:40;101890.97;;;8.14;69.50
64066;BME280;50318;54.760;9.408;2022-12-05T01:28:07;101900.75;;;8.12;70.35
64066;BME280;50318;54.760;9.408;2022-12-05T01:30:37;101904.66;;;8.11;69.85
64066;BME280;50318;54.760;9.408;2022-12-05T01:33:04;101906.97;;;8.16;69.93
64066;BME280;50318;54.760;9.408;2022-12-05T01:35:31;101902.66;;;8.15;69.52
64066;BME280;50318;54.760;9.408;2022-12-05T01:37:57;101917.00;;;8.26;69.89
64066;BME280;50318;54.760;9.408;2022-12-05T01:40:23;101904.19;;;8.19;69.41
64066;BME280;50318;54.760;9.408;2022-12-05T01:42:49;101901.47;;;8.19;68.93
64066;BME280;50318;54.760;9.408;2022-12-05T01:45:20;101909.63;;;8.23;69.15
64066;BME280;50318;54.760;9.408;2022-12-05T01:47:47;101909.66;;;8.19;69.20
64066;BME280;50318;54.760;9.408;2022-12-05T01:50:13;101902.63;;;8.18;69.19
64066;BME280;50318;54.760;9.408;2022-12-05T01:52:39;101915.53;;;8.18;68.93
64066;BME280;50318;54.760;9.408;2022-12-05T01:55:09;101913.16;;;8.20;69.02
64066;BME280;50318;54.760;9.408;2022-12-05T01:57:36;101921.00;;;8.18;68.68
64066;BME280;50318;54.760;9.408;2022-12-05T02:00:10;101909.69;;;8.16;69.50
64066;BME280;50318;54.760;9.408;2022-12-05T02:02:46;101903.03;;;8.17;69.47
64066;BME280;50318;54.760;9.408;2022-12-05T02:05:20;101908.09;;;8.18;68.83
64066;BME280;50318;54.760;9.408;2022-12-05T02:07:46;101892.88;;;8.17;68.69
64066;BME280;50318;54.760;9.408;2022-12-05T02:10:13;101891.38;;;8.13;69.02
64066;BME280;50318;54.760;9.408;2022-12-05T02:12:39;101884.69;;;8.17;68.16
64066;BME280;50318;54.760;9.408;2022-12-05T02:21:49;101890.56;;;8.16;68.82
64066;BME280;50318;54.760;9.408;2022-12-05T02:34:58;101880.41;;;8.16;68.60
64066;BME280;50318;54.760;9.408;2022-12-05T02:40:18;101890.22;;;8.10;67.96
64066;BME280;50318;54.760;9.408;2022-12-05T02:43:01;101875.00;;;8.09;69.00
64066;BME280;50318;54.760;9.408;2022-12-05T02:45:30;101882.84;;;8.07;68.26
64066;BME280;50318;54.760;9.408;2022-12-05T02:47:59;101871.13;;;8.07;68.54
64066;BME280;50318;54.760;9.408;2022-12-05T02:50:34;101880.06;;;8.11;68.37
64066;BME280;50318;54.760;9.408;2022-12-05T02:53:06;101883.59;;;8.08;68.20
64066;BME280;50318;54.760;9.408;2022-12-05T02:55:33;101874.22;;;8.09;67.72
64066;BME280;50318;54.760;9.408;2022-12-05T02:58:03;101868.03;;;8.01;67.86
64066;BME280;50318;54.760;9.408;2022-12-05T03:00:30;101855.50;;;8.04;67.82
64066;BME280;50318;54.760;9.408;2022-12-05T03:02:58;101860.25;;;7.99;68.25
64066;BME280;50318;54.760;9.408;2022-12-05T03:07:52;101872.69;;;8.08;67.77
64066;BME280;50318;54.760;9.408;2022-12-05T03:10:22;101867.22;;;8.04;68.41
64066;BME280;50318;54.760;9.408;2022-12-05T03:12:53;101849.28;;;8.03;67.68
64066;BME280;50318;54.760;9.408;2022-12-05T03:15:25;101844.22;;;8.01;67.38
64066;BME280;50318;54.760;9.408;2022-12-05T03:17:57;101843.81;;;8.07;67.77
64066;BME280;50318;54.760;9.408;2022-12-05T03:20:27;101846.50;;;8.10;67.79
64066;BME280;50318;54.760;9.408;2022-12-05T03:22:59;101857.78;;;8.12;67.16
64066;BME280;50318;54.760;9.408;2022-12-05T03:25:55;101849.66;;;8.05;67.23
64066;BME280;50318;54.760;9.408;2022-12-05T03:28:33;101849.75;;;7.94;67.60
64066;BME280;50318;54.760;9.408;2022-12-05T03:31:07;101852.84;;;7.96;67.13
64066;BME280;50318;54.760;9.408;2022-12-05T03:33:37;101862.97;;;7.99;66.63
64066;BME280;50318;54.760;9.408;2022-12-05T03:36:17;101837.59;;;7.99;67.23
64066;BME280;50318;54.760;9.408;2022-12-05T03:38:48;101856.31;;;8.00;67.46
64066;BME280;50318;54.760;9.408;2022-12-05T03:41:23;101841.06;;;8.03;67.20
64066;BME280;50318;54.760;9.408;2022-12-05T03:43:56;101855.59;;;7.96;67.01
64066;BME280;50318;54.760;9.408;2022-12-05T03:46:32;101844.25;;;7.98;67.00
64066;BME280;50318;54.760;9.408;2022-12-05T03:51:43;101839.16;;;8.00;66.79
64066;BME280;50318;54.760;9.408;2022-12-05T03:54:17;101843.84;;;7.99;66.59
64066;BME280;50318;54.760;9.408;2022-12-05T03:56:46;101842.69;;;7.97;66.39
64066;BME280;50318;54.760;9.408;2022-12-05T03:59:27;101829.03;;;7.97;66.55
64066;BME280;50318;54.760;9.408;2022-12-05T04:01:56;101831.72;;;8.00;66.68
64066;BME280;50318;54.760;9.408;2022-12-05T04:04:40;101844.63;;;8.00;66.64
64066;BME280;50318;54.760;9.408;2022-12-05T04:07:10;101838.38;;;7.99;65.87
64066;BME280;50318;54.760;9.408;2022-12-05T04:09:42;101836.41;;;8.00;66.32
64066;BME280;50318;54.760;9.408;2022-12-05T04:12:14;101834.09;;;7.98;65.88
64066;BME280;50318;54.760;9.408;2022-12-05T04:14:45;101830.56;;;8.01;66.51
64066;BME280;50318;54.760;9.408;2022-12-05T04:19:47;101845.34;;;8.08;66.36
64066;BME280;50318;54.760;9.408;2022-12-05T04:22:36;101836.06;;;7.98;65.79
64066;BME280;50318;54.760;9.408;2022-12-05T04:25:04;101841.50;;;7.98;66.19
64066;BME280;50318;54.760;9.408;2022-12-05T04:30:26;101835.69;;;7.96;66.24
64066;BME280;50318;54.760;9.408;2022-12-05T04:36:10;101832.09;;;8.02;66.12
64066;BME280;50318;54.760;9.408;2022-12-05T04:38:42;101823.56;;;7.97;66.11
64066;BME280;50318;54.760;9.408;2022-12-05T04:41:14;101832.09;;;8.06;65.69
64066;BME280;50318;54.760;9.408;2022-12-05T04:43:44;101830.53;;;8.05;65.70
64066;BME280;50318;54.760;9.408;2022-12-05T04:46:13;101825.09;;;8.01;66.04
64066;BME280;50318;54.760;9.408;2022-12-05T04:48:43;101824.31;;;8.01;66.06
64066;BME280;50318;54.760;9.408;2022-12-05T04:51:15;101830.16;;;8.03;65.96
64066;BME280;50318;54.760;9.408;2022-12-05T04:53:43;101834.44;;;8.04;65.83
64066;BME280;50318;54.760;9.408;2022-12-05T04:56:14;101825.44;;;8.07;65.61
64066;BME280;50318;54.760;9.408;2022-12-05T04:58:41;101825.84;;;8.06;65.82
64066;BME280;50318;54.760;9.408;2022-12-05T05:01:18;101826.22;;;8.08;65.79
64066;BME280;50318;54.760;9.408;2022-12-05T05:04:51;101835.16;;;8.12;66.04
64066;BME280;50318;54.760;9.408;2022-12-05T05:06:52;101832.09;;;8.02;66.09
64066;BME280;50318;54.760;9.408;2022-12-05T05:09:18;101830.94;;;8.00;65.66
64066;BME280;50318;54.760;9.408;2022-12-05T05:11:44;101835.66;;;7.99;66.10
64066;BME280;50318;54.760;9.408;2022-12-05T05:14:09;101854.78;;;7.99;66.23
64066;BME280;50318;54.760;9.408;2022-12-05T05:16:38;101842.28;;;7.98;66.13
64066;BME280;50318;54.760;9.408;2022-12-05T05:19:05;101843.84;;;7.99;66.72
64066;BME280;50318;54.760;9.408;2022-12-05T05:21:34;101836.81;;;7.98;66.90
64066;BME280;50318;54.760;9.408;2022-12-05T05:24:00;101841.88;;;8.00;66.31
64066;BME280;50318;54.760;9.408;2022-12-05T05:26:28;101839.56;;;7.98;66.67
64066;BME280;50318;54.760;9.408;2022-12-05T05:28:55;101836.00;;;8.01;66.84
64066;BME280;50318;54.760;9.408;2022-12-05T05:31:21;101836.47;;;7.96;66.87
64066;BME280;50318;54.760;9.408;2022-12-05T05:33:48;101844.59;;;8.04;66.60
64066;BME280;50318;54.760;9.408;2022-12-05T05:36:14;101838.38;;;7.99;66.79
64066;BME280;50318;54.760;9.408;2022-12-05T05:38:42;101831.31;;;8.02;67.32
64066;BME280;50318;54.760;9.408;2022-12-05T05:41:13;101829.75;;;8.05;66.72
64066;BME280;50318;54.760;9.408;2022-12-05T05:43:40;101839.91;;;8.04;66.55
64066;BME280;50318;54.760;9.408;2022-12-05T05:46:06;101834.44;;;8.04;66.40
64066;BME280;50318;54.760;9.408;2022-12-05T05:48:32;101837.97;;;8.01;66.98
64066;BME280;50318;54.760;9.408;2022-12-05T05:50:58;101834.44;;;8.04;67.31
64066;BME280;50318;54.760;9.408;2022-12-05T05:53:24;101837.16;;;8.08;67.47
64066;BME280;50318;54.760;9.408;2022-12-05T05:55:50;101827.41;;;8.03;67.24
64066;BME280;50318;54.760;9.408;2022-12-05T05:58:16;101839.88;;;8.08;67.50
64066;BME280;50318;54.760;9.408;2022-12-05T06:00:41;101837.53;;;8.10;67.76
64066;BME280;50318;54.760;9.408;2022-12-05T06:03:07;101842.25;;;8.06;67.67
64066;BME280;50318;54.760;9.408;2022-12-05T06:05:33;101821.16;;;8.02;67.09
64066;BME280;50318;54.760;9.408;2022-12-05T06:07:59;101836.38;;;8.07;67.37
64066;BME280;50318;54.760;9.408;2022-12-05T06:10:24;101844.16;;;8.09;67.76
64066;BME280;50318;54.760;9.408;2022-12-05T06:12:50;101835.97;;;8.09;67.59
64066;BME280;50318;54.760;9.408;2022-12-05T06:15:16;101834.78;;;8.10;67.64
64066;BME280;50318;54.760;9.408;2022-12-05T06:17:42;101829.75;;;8.05;68.12
64066;BME280;50318;54.760;9.408;2022-12-05T06:20:08;101820.75;;;8.08;67.64
64066;BME280;50318;54.760;9.408;2022-12-05T06:22:33;101825.03;;;8.09;67.65
64066;BME280;50318;54.760;9.408;2022-12-05T06:24:59;101817.25;;;8.04;67.80
64066;BME280;50318;54.760;9.408;2022-12-05T06:27:28;101832.06;;;8.10;67.91
64066;BME280;50318;54.760;9.408;2022-12-05T06:29:54;101817.25;;;8.04;68.02
64066;BME280;50318;54.760;9.408;2022-12-05T06:32:20;101815.28;;;8.08;68.20
64066;BME280;50318;54.760;9.408;2022-12-05T06:34:46;101814.09;;;8.09;67.85
64066;BME280;50318;54.760;9.408;2022-12-05T06:37:11;101819.94;;;8.11;68.04
64066;BME280;50318;54.760;9.408;2022-12-05T06:39:37;101821.53;;;8.08;68.29
64066;BME280;50318;54.760;9.408;2022-12-05T06:42:03;101830.88;;;8.11;68.27
64066;BME280;50318;54.760;9.408;2022-12-05T06:44:29;101828.19;;;8.07;67.91
64066;BME280;50318;54.760;9.408;2022-12-05T06:46:54;101835.22;;;8.05;67.84
64066;BME280;50318;54.760;9.408;2022-12-05T06:49:21;101835.97;;;8.09;68.15
64066;BME280;50318;54.760;9.408;2022-12-05T06:51:51;101821.94;;;8.07;68.06
64066;BME280;50318;54.760;9.408;2022-12-05T06:54:18;101839.88;;;8.08;68.30
64066;BME280;50318;54.760;9.408;2022-12-05T06:56:43;101827.41;;;8.07;68.46
64066;BME280;50318;54.760;9.408;2022-12-05T06:59:09;101816.09;;;8.05;68.40
64066;BME280;50318;54.760;9.408;2022-12-05T07:01:35;101836.78;;;8.06;68.97
64066;BME280;50318;54.760;9.408;2022-12-05T07:04:16;101845.75;;;8.02;68.70
64066;BME280;50318;54.760;9.408;2022-12-05T07:06:44;101836.81;;;7.98;68.96
64066;BME280;50318;54.760;9.408;2022-12-05T07:09:10;101832.88;;;8.03;68.87
64066;BME280;50318;54.760;9.408;2022-12-05T07:11:36;101841.47;;;8.01;68.79
64066;BME280;50318;54.760;9.408;2022-12-05T07:14:03;101829.81;;;7.97;68.99
64066;BME280;50318;54.760;9.408;2022-12-05T07:16:30;101829.81;;;7.97;69.74
64066;BME280;50318;54.760;9.408;2022-12-05T07:18:56;101834.84;;;8.02;69.45
64066;BME280;50318;54.760;9.408;2022-12-05T07:21:22;101831.69;;;8.04;69.45
64066;BME280;50318;54.760;9.408;2022-12-05T07:23:48;101836.38;;;8.04;69.73
64066;BME280;50318;54.760;9.408;2022-12-05T07:26:17;101837.56;;;8.06;69.82
64066;BME280;50318;54.760;9.408;2022-12-05T07:28:44;101826.63;;;8.02;70.02
64066;BME280;50318;54.760;9.408;2022-12-05T07:31:12;101835.66;;;7.99;69.93
64066;BME280;50318;54.760;9.408;2022-12-05T07:33:38;101835.22;;;8.05;70.22
64066;BME280;50318;54.760;9.408;2022-12-05T07:36:07;101839.09;;;8.07;70.40
64066;BME280;50318;54.760;9.408;2022-12-05T07:38:33;101842.25;;;8.06;69.83
64066;BME280;50318;54.760;9.408;2022-12-05T07:41:07;101841.06;;;8.07;70.06
64066;BME280;50318;54.760;9.408;2022-12-05T07:43:33;101827.81;;;8.01;70.17
64066;BME280;50318;54.760;9.408;2022-12-05T07:46:04;101828.19;;;8.04;70.37
64066;BME280;50318;54.760;9.408;2022-12-05T07:48:30;101827.44;;;7.99;70.36
64066;BME280;50318;54.760;9.408;2022-12-05T07:51:01;101832.09;;;8.02;70.46
64066;BME280;50318;54.760;9.408;2022-12-05T07:53:28;101844.25;;;7.98;70.78
64066;BME280;50318;54.760;9.408;2022-12-05T07:55:54;101840.66;;;8.08;70.45
64066;BME280;50318;54.760;9.408;2022-12-05T07:58:20;101832.09;;;8.06;70.21
64066;BME280;50318;54.760;9.408;2022-12-05T08:00:46;101827.03;;;8.05;70.82
64066;BME280;50318;54.760;9.408;2022-12-05T08:03:11;101829.75;;;8.05;70.66
64066;BME280;50318;54.760;9.408;2022-12-05T08:05:37;101831.31;;;8.06;70.91
64066;BME280;50318;54.760;9.408;2022-12-05T08:08:03;101834.78;;;8.10;70.58
64066;BME280;50318;54.760;9.408;2022-12-05T08:10:29;101833.59;;;8.11;70.77
64066;BME280;50318;54.760;9.408;2022-12-05T08:12:55;101828.91;;;8.11;70.90
64066;BME280;50318;54.760;9.408;2022-12-05T08:15:20;101823.50;;;8.04;70.36
64066;BME280;50318;54.760;9.408;2022-12-05T08:17:46;101834.06;;;8.06;71.02
64066;BME280;50318;54.760;9.408;2022-12-05T08:20:12;101813.38;;;8.01;70.83
64066;BME280;50318;54.760;9.408;2022-12-05T08:22:38;101807.13;;;8.00;70.67
64066;BME280;50318;54.760;9.408;2022-12-05T08:25:04;101821.16;;;8.02;71.37
64066;BME280;50318;54.760;9.408;2022-12-05T08:27:30;101812.59;;;8.00;71.28
64066;BME280;50318;54.760;9.408;2022-12-05T08:29:56;101844.59;;;8.04;71.22
64066;BME280;50318;54.760;9.408;2022-12-05T08:32:21;101810.66;;;8.01;71.64
64066;BME280;50318;54.760;9.408;2022-12-05T08:34:47;101820.81;;;8.00;71.38
64066;BME280;50318;54.760;9.408;2022-12-05T08:37:13;101797.88;;;7.91;71.41
64066;BME280;50318;54.760;9.408;2022-12-05T08:39:38;101817.69;;;7.98;71.38
64066;BME280;50318;54.760;9.408;2022-12-05T08:42:04;101820.88;;;7.93;71.65
64066;BME280;50318;54.760;9.408;2022-12-05T08:44:30;101808.75;;;7.94;71.83
64066;BME280;50318;54.760;9.408;2022-12-05T08:46:56;101818.03;;;8.04;71.72
64066;BME280;50318;54.760;9.408;2022-12-05T08:49:21;101814.16;;;8.01;71.67
64066;BME280;50318;54.760;9.408;2022-12-05T08:51:47;101820.44;;;7.98;71.71
64066;BME280;50318;54.760;9.408;2022-12-05T08:54:13;101833.66;;;8.04;71.85
64066;BME280;50318;54.760;9.408;2022-12-05T08:56:39;101823.50;;;8.04;71.55
64066;BME280;50318;54.760;9.408;2022-12-05T08:59:05;101825.91;;;7.98;71.72
64066;BME280;50318;54.760;9.408;2022-12-05T09:01:32;101826.66;;;7.99;71.65
64066;BME280;50318;54.760;9.408;2022-12-05T09:03:59;101826.72;;;7.95;72.28
64066;BME280;50318;54.760;9.408;2022-12-05T09:06:26;101825.91;;;7.98;71.82
64066;BME280;50318;54.760;9.408;2022-12-05T09:08:57;101827.03;;;8.01;71.66
64066;BME280;50318;54.760;9.408;2022-12-05T09:11:29;101828.97;;;8.08;71.60
64066;BME280;50318;54.760;9.408;2022-12-05T09:13:56;101833.25;;;8.09;71.54
64066;BME280;50318;54.760;9.408;2022-12-05T09:16:28;101826.59;;;8.10;71.98
64066;BME280;50318;54.760;9.408;2022-12-05T09:18:54;101835.19;;;8.08;71.50
64066;BME280;50318;54.760;9.408;2022-12-05T09:21:23;101831.28;;;8.09;71.30
64066;BME280;50318;54.760;9.408;2022-12-05T09:23:50;101817.66;;;8.06;71.66
64066;BME280;50318;54.760;9.408;2022-12-05T09:26:18;101814.84;;;8.13;71.44
64066;BME280;50318;54.760;9.408;2022-12-05T09:28:45;101816.41;;;8.14;71.28
64066;BME280;50318;54.760;9.408;2022-12-05T09:31:20;101831.16;;;8.20;70.59
64066;BME280;50318;54.760;9.408;2022-12-05T09:33:47;101815.16;;;8.18;70.93
64066;BME280;50318;54.760;9.408;2022-12-05T09:36:22;101824.50;;;8.21;71.11
64066;BME280;50318;54.760;9.408;2022-12-05T09:38:49;101828.78;;;8.22;70.53
64066;BME280;50318;54.760;9.408;2022-12-05T09:49:35;101825.78;;;8.13;69.98
64066;BME280;50318;54.760;9.408;2022-12-05T09:52:04;101821.78;;;8.21;69.97
64066;BME280;50318;54.760;9.408;2022-12-05T09:54:31;101820.94;;;8.27;69.76
64066;BME280;50318;54.760;9.408;2022-12-05T09:56:58;101827.94;;;8.32;69.97
64066;BME280;50318;54.760;9.408;2022-12-05T09:59:24;101825.97;;;8.36;69.51
64066;BME280;50318;54.760;9.408;2022-12-05T10:04:48;101822.00;;;8.41;69.02
64066;BME280;50318;54.760;9.408;2022-12-05T10:07:37;101825.13;;;8.39;69.08
64066;BME280;50318;54.760;9.408;2022-12-05T10:18:02;101808.78;;;8.32;68.28
64066;BME280;50318;54.760;9.408;2022-12-05T10:20:45;101804.53;;;8.27;68.81
64066;BME280;50318;54.760;9.408;2022-12-05T10:23:20;101796.72;;;8.26;68.64
64066;BME280;50318;54.760;9.408;2022-12-05T10:25:51;101799.03;;;8.31;68.93
64066;BME280;50318;54.760;9.408;2022-12-05T10:28:33;101785.00;;;8.29;68.50
64066;BME280;50318;54.760;9.408;2022-12-05T10:31:05;101786.94;;;8.32;68.04
64066;BME280;50318;54.760;9.408;2022-12-05T10:33:37;101798.97;;;8.38;68.47
64066;BME280;50318;54.760;9.408;2022-12-05T10:36:12;101795.88;;;8.36;68.26
64066;BME280;50318;54.760;9.408;2022-12-05T10:38:37;101785.75;;;8.33;68.38
64066;BME280;50318;54.760;9.408;2022-12-05T10:41:08;101776.38;;;8.34;68.10
64066;BME280;50318;54.760;9.408;2022-12-05T10:43:35;101775.22;;;8.28;68.22
64066;BME280;50318;54.760;9.408;2022-12-05T10:46:05;101789.28;;;8.30;68.10
64066;BME280;50318;54.760;9.408;2022-12-05T10:48:34;101781.47;;;8.32;68.61
64066;BME280;50318;54.760;9.408;2022-12-05T10:51:00;101765.47;;;8.30;68.46
64066;BME280;50318;54.760;9.408;2022-12-05T10:55:53;101757.63;;;8.36;68.21
64066;BME280;50318;54.760;9.408;2022-12-05T10:58:25;101769.22;;;8.44;68.37
64066;BME280;50318;54.760;9.408;2022-12-05T11:00:54;101769.53;;;8.49;67.69
64066;BME280;50318;54.760;9.408;2022-12-05T11:03:33;101764.44;;;8.51;67.60
64066;BME280;50318;54.760;9.408;2022-12-05T11:06:46;101748.84;;;8.48;67.68
64066;BME280;50318;54.760;9.408;2022-12-05T11:08:56;101762.94;;;8.47;68.04
64066;BME280;50318;54.760;9.408;2022-12-05T11:11:25;101750.44;;;8.46;67.86
64066;BME280;50318;54.760;9.408;2022-12-05T11:14:18;101757.16;;;8.41;67.57
64066;BME280;50318;54.760;9.408;2022-12-05T11:16:54;101749.72;;;8.42;67.94
64066;BME280;50318;54.760;9.408;2022-12-05T11:21:49;101748.84;;;8.48;67.69
64066;BME280;50318;54.760;9.408;2022-12-05T11:26:53;101739.09;;;8.47;67.33
64066;BME280;50318;54.760;9.408;2022-12-05T11:29:32;101762.09;;;8.53;68.09
64066;BME280;50318;54.760;9.408;2022-12-05T11:31:59;101731.69;;;8.48;67.86
64066;BME280;50318;54.760;9.408;2022-12-05T11:34:30;101735.88;;;8.56;67.47
64066;BME280;50318;54.760;9.408;2022-12-05T11:37:25;101735.47;;;8.57;67.32
64066;BME280;50318;54.760;9.408;2022-12-05T11:39:54;101728.53;;;8.49;67.38
64066;BME280;50318;54.760;9.408;2022-12-05T11:42:39;101730.06;;;8.50;67.78
64066;BME280;50318;54.760;9.408;2022-12-05T11:45:25;101730.84;;;8.54;67.82
64066;BME280;50318;54.760;9.408;2022-12-05T11:48:28;101729.28;;;8.53;67.65
64066;BME280;50318;54.760;9.408;2022-12-05T11:54:21;101730.91;;;8.47;67.51
64066;BME280;50318;54.760;9.408;2022-12-05T11:57:01;101725.06;;;8.45;67.61
64066;BME280;50318;54.760;9.408;2022-12-05T12:07:38;101726.16;;;8.51;68.43
64066;BME280;50318;54.760;9.408;2022-12-05T12:10:24;101716.03;;;8.52;68.34
64066;BME280;50318;54.760;9.408;2022-12-05T12:13:09;101725.03;;;8.49;68.06
64066;BME280;50318;54.760;9.408;2022-12-05T12:19:09;101711.31;;;8.52;67.80
64066;BME280;50318;54.760;9.408;2022-12-05T12:21:52;101716.78;;;8.52;67.82
64066;BME280;50318;54.760;9.408;2022-12-05T12:30:17;101710.13;;;8.53;67.96
64066;BME280;50318;54.760;9.408;2022-12-05T12:38:24;101708.06;;;8.61;67.76
64066;BME280;50318;54.760;9.408;2022-12-05T12:44:02;101712.81;;;8.57;67.72
64066;BME280;50318;54.760;9.408;2022-12-05T12:52:00;101684.78;;;8.49;67.79
64066;BME280;50318;54.760;9.408;2022-12-05T13:00:15;101662.50;;;8.51;67.61
64066;BME280;50318;54.760;9.408;2022-12-05T13:05:47;101670.25;;;8.56;67.69
64066;BME280;50318;54.760;9.408;2022-12-05T13:10:57;101671.63;;;8.41;68.01
64066;BME280;50318;54.760;9.408;2022-12-05T13:13:37;101678.94;;;8.47;68.07
64066;BME280;50318;54.760;9.408;2022-12-05T13:16:06;101677.34;;;8.50;67.66
64066;BME280;50318;54.760;9.408;2022-12-05T13:18:33;101655.16;;;8.44;67.90
64066;BME280;50318;54.760;9.408;2022-12-05T13:21:06;101662.53;;;8.47;68.00
64066;BME280;50318;54.760;9.408;2022-12-05T13:23:34;101682.88;;;8.46;68.18
64066;BME280;50318;54.760;9.408;2022-12-05T13:26:07;101663.00;;;8.42;68.10
64066;BME280;50318;54.760;9.408;2022-12-05T13:28:37;101673.13;;;8.45;67.53
64066;BME280;50318;54.760;9.408;2022-12-05T13:31:07;101669.91;;;8.50;68.06
64066;BME280;50318;54.760;9.408;2022-12-05T13:33:40;101654.34;;;8.47;68.33
64066;BME280;50318;54.760;9.408;2022-12-05T13:36:11;101655.03;;;8.55;67.92
64066;BME280;50318;54.760;9.408;2022-12-05T13:38:58;101667.88;;;8.58;67.59
64066;BME280;50318;54.760;9.408;2022-12-05T13:41:49;101651.94;;;8.53;67.55
64066;BME280;50318;54.760;9.408;2022-12-05T13:47:37;101650.06;;;8.46;67.87
64066;BME280;50318;54.760;9.408;2022-12-05T13:50:13;101653.94;;;8.49;67.64
64066;BME280;50318;54.760;9.408;2022-12-05T13:52:48;101663.69;;;8.50;67.78
64066;BME280;50318;54.760;9.408;2022-12-05T13:55:27;101660.16;;;8.49;67.93
64066;BME280;50318;54.760;9.408;2022-12-05T13:57:59;101665.69;;;8.46;68.09
64066;BME280;50318;54.760;9.408;2022-12-05T14:00:27;101666.09;;;8.44;67.65
64066;BME280;50318;54.760;9.408;2022-12-05T14:03:54;101669.97;;;8.47;67.93
64066;BME280;50318;54.760;9.408;2022-12-05T14:06:02;101650.53;;;8.41;68.01
64066;BME280;50318;54.760;9.408;2022-12-05T14:15:53;101662.94;;;8.46;67.72
64066;BME280;50318;54.760;9.408;2022-12-05T14:21:12;101658.25;;;8.46;67.88
64066;BME280;50318;54.760;9.408;2022-12-05T14:27:18;101642.69;;;8.43;67.14
64066;BME280;50318;54.760;9.408;2022-12-05T14:32:37;101634.47;;;8.43;68.23
64066;BME280;50318;54.760;9.408;2022-12-05T14:37:40;101634.38;;;8.50;67.98
64066;BME280;50318;54.760;9.408;2022-12-05T14:40:28;101643.72;;;8.53;68.24
64066;BME280;50318;54.760;9.408;2022-12-05T14:43:04;101640.59;;;8.54;68.41
64066;BME280;50318;54.760;9.408;2022-12-05T14:45:34;101637.03;;;8.57;67.82
64066;BME280;50318;54.760;9.408;2022-12-05T14:48:04;101635.06;;;8.58;68.04
64066;BME280;50318;54.760;9.408;2022-12-05T14:50:55;101633.88;;;8.59;68.05
64066;BME280;50318;54.760;9.408;2022-12-05T14:58:18;101616.47;;;8.46;67.34
64066;BME280;50318;54.760;9.408;2022-12-05T15:00:54;101633.19;;;8.51;67.85
64066;BME280;50318;54.760;9.408;2022-12-05T15:03:26;101639.75;;;8.57;67.79
64066;BME280;50318;54.760;9.408;2022-12-05T15:05:55;101639.75;;;8.57;67.39
64066;BME280;50318;54.760;9.408;2022-12-05T15:08:21;101634.28;;;8.57;67.97
64066;BME280;50318;54.760;9.408;2022-12-05T15:10:49;101636.19;;;8.60;68.22
64066;BME280;50318;54.760;9.408;2022-12-05T15:13:18;101648.69;;;8.61;68.42
64066;BME280;50318;54.760;9.408;2022-12-05T15:15:51;101634.66;;;8.59;68.01
64066;BME280;50318;54.760;9.408;2022-12-05T15:18:24;101637.38;;;8.59;68.08
64066;BME280;50318;54.760;9.408;2022-12-05T15:21:03;101633.47;;;8.60;67.91
64066;BME280;50318;54.760;9.408;2022-12-05T15:23:52;101629.22;;;8.56;67.68
64066;BME280;50318;54.760;9.408;2022-12-05T15:26:26;101631.56;;;8.57;67.67
64066;BME280;50318;54.760;9.408;2022-12-05T15:31:48;101649.50;;;8.58;67.70
64066;BME280;50318;54.760;9.408;2022-12-05T15:36:50;101636.91;;;8.65;67.87
64066;BME280;50318;54.760;9.408;2022-12-05T15:39:24;101639.16;;;8.70;68.00